sensor_id;sensor_type;location;lat;lon;timestamp;P1;durP1;ratioP1;P2;durP2;ratioP2
4642;SDS011;2334;48.710;9.622;2022-12-18T00:00:45;22.07;;;7.30;;
4642;SDS011;2334;48.710;9.622;2022-12-18T00:03:14;20.37;;;8.07;;
4642;SDS011;2334;48.710;9.622;2022-12-18T00:05:47;18.97;;;7.03;;
4642;SDS011;2334;48.710;9.622;2022-12-18T00:08:15;18.27;;;7.70;;
4642;SDS011;2334;48.710;9.622;2022-12-18T00:10:42;19.90;;;9.03;;
4642;SDS011;2334;48.710;9.622;2022-12-18T00:13:09;23.10;;;9.20;;
4642;SDS011;2334;48.710;9.622;2022-12-18T00:15:36;14.67;;;7.90;;
4642;SDS011;2334;48.710;9.622;2022-12-18T00:18:04;15.20;;;8.37;;
4642;SDS011;2334;48.710;9.622;2022-12-18T00:20:36;17.67;;;8.57;;
4642;SDS011;2334;48.710;9.622;2022-12-18T00:23:03;10.60;;;6.53;;
4642;SDS011;2334;48.710;9.622;2022-12-18T00:25:32;16.67;;;7.77;;
4642;SDS011;2334;48.710;9.622;2022-12-18T00:28:00;12.80;;;6.93;;
4642;SDS011;2334;48.710;9.622;2022-12-18T00:30:27;26.43;;;8.40;;
4642;SDS011;2334;48.710;9.622;2022-12-18T00:32:54;16.10;;;7.67;;
4642;SDS011;2334;48.710;9.622;2022-12-18T00:35:21;16.30;;;7.50;;
4642;SDS011;2334;48.710;9.622;2022-12-18T00:37:49;18.07;;;8.10;;
4642;SDS011;2334;48.710;9.622;2022-12-18T00:40:16;14.30;;;6.33;;
4642;SDS011;2334;48.710;9.622;2022-12-18T00:42:43;14.13;;;6.63;;
4642;SDS011;2334;48.710;9.622;2022-12-18T00:45:24;16.17;;;9.43;;
4642;SDS011;2334;48.710;9.622;2022-12-18T00:47:51;14.63;;;6.10;;
4642;SDS011;2334;48.710;9.622;2022-12-18T00:50:19;14.50;;;6.67;;
4642;SDS011;2334;48.710;9.622;2022-12-18T00:52:46;15.87;;;6.27;;
4642;SDS011;2334;48.710;9.622;2022-12-18T00:55:14;15.67;;;6.10;;
4642;SDS011;2334;48.710;9.622;2022-12-18T00:57:41;20.03;;;8.07;;
4642;SDS011;2334;48.710;9.622;2022-12-18T01:00:10;9.67;;;5.93;;
4642;SDS011;2334;48.710;9.622;2022-12-18T01:02:39;17.47;;;6.77;;
4642;SDS011;2334;48.710;9.622;2022-12-18T01:05:07;16.93;;;6.23;;
4642;SDS011;2334;48.710;9.622;2022-12-18T01:07:34;22.80;;;9.53;;
4642;SDS011;2334;48.710;9.622;2022-12-18T01:10:01;28.13;;;7.13;;
4642;SDS011;2334;48.710;9.622;2022-12-18T01:12:30;18.30;;;6.53;;
4642;SDS011;2334;48.710;9.622;2022-12-18T01:14:57;24.60;;;8.93;;
4642;SDS011;2334;48.710;9.622;2022-12-18T01:17:24;20.70;;;10.27;;
4642;SDS011;2334;48.710;9.622;2022-12-18T01:19:51;17.70;;;7.47;;
4642;SDS011;2334;48.710;9.622;2022-12-18T01:22:18;14.63;;;7.50;;
4642;SDS011;2334;48.710;9.622;2022-12-18T01:24:45;24.90;;;12.87;;
4642;SDS011;2334;48.710;9.622;2022-12-18T01:27:12;26.00;;;13.20;;
4642;SDS011;2334;48.710;9.622;2022-12-18T01:29:40;37.70;;;14.10;;
4642;SDS011;2334;48.710;9.622;2022-12-18T01:32:07;30.00;;;15.27;;
4642;SDS011;2334;48.710;9.622;2022-12-18T01:34:35;43.60;;;16.60;;
4642;SDS011;2334;48.710;9.622;2022-12-18T01:37:02;35.23;;;14.60;;
4642;SDS011;2334;48.710;9.622;2022-12-18T01:39:29;26.10;;;14.20;;
4642;SDS011;2334;48.710;9.622;2022-12-18T01:41:56;34.20;;;13.20;;
4642;SDS011;2334;48.710;9.622;2022-12-18T01:47:45;26.87;;;11.03;;
4642;SDS011;2334;48.710;9.622;2022-12-18T01:50:16;25.77;;;11.23;;
4642;SDS011;2334;48.710;9.622;2022-12-18T01:52:47;26.33;;;10.10;;
4642;SDS011;2334;48.710;9.622;2022-12-18T01:55:18;27.50;;;11.87;;
4642;SDS011;2334;48.710;9.622;2022-12-18T01:57:46;25.47;;;9.73;;
4642;SDS011;2334;48.710;9.622;2022-12-18T02:00:16;18.73;;;10.77;;
4642;SDS011;2334;48.710;9.622;2022-12-18T02:02:46;22.43;;;9.70;;
4642;SDS011;2334;48.710;9.622;2022-12-18T02:05:15;31.73;;;11.63;;
4642;SDS011;2334;48.710;9.622;2022-12-18T02:07:46;22.70;;;9.43;;
4642;SDS011;2334;48.710;9.622;2022-12-18T02:10:24;18.80;;;6.77;;
4642;SDS011;2334;48.710;9.622;2022-12-18T02:13:00;21.03;;;10.50;;
4642;SDS011;2334;48.710;9.622;2022-12-18T02:15:40;13.53;;;6.73;;
4642;SDS011;2334;48.710;9.622;2022-12-18T02:18:16;28.60;;;10.80;;
4642;SDS011;2334;48.710;9.622;2022-12-18T02:20:47;37.13;;;9.50;;
4642;SDS011;2334;48.710;9.622;2022-12-18T02:23:24;23.43;;;11.80;;
4642;SDS011;2334;48.710;9.622;2022-12-18T02:26:06;32.70;;;10.67;;
4642;SDS011;2334;48.710;9.622;2022-12-18T02:28:40;18.10;;;8.97;;
4642;SDS011;2334;48.710;9.622;2022-12-18T02:31:11;16.70;;;7.73;;
4642;SDS011;2334;48.710;9.622;2022-12-18T02:33:42;21.57;;;10.60;;
4642;SDS011;2334;48.710;9.622;2022-12-18T02:36:11;19.47;;;9.00;;
4642;SDS011;2334;48.710;9.622;2022-12-18T02:38:39;36.57;;;11.00;;
4642;SDS011;2334;48.710;9.622;2022-12-18T02:41:11;34.37;;;12.13;;
4642;SDS011;2334;48.710;9.622;2022-12-18T02:43:39;19.63;;;8.33;;
4642;SDS011;2334;48.710;9.622;2022-12-18T02:46:23;13.73;;;8.17;;
4642;SDS011;2334;48.710;9.622;2022-12-18T02:48:54;22.07;;;8.30;;
4642;SDS011;2334;48.710;9.622;2022-12-18T02:51:31;22.70;;;7.37;;
4642;SDS011;2334;48.710;9.622;2022-12-18T02:54:06;24.10;;;9.60;;
4642;SDS011;2334;48.710;9.622;2022-12-18T02:56:42;17.00;;;9.57;;
4642;SDS011;2334;48.710;9.622;2022-12-18T02:59:16;29.43;;;7.20;;
4642;SDS011;2334;48.710;9.622;2022-12-18T03:01:50;24.10;;;9.40;;
4642;SDS011;2334;48.710;9.622;2022-12-18T03:04:20;14.23;;;7.80;;
4642;SDS011;2334;48.710;9.622;2022-12-18T03:06:53;34.57;;;10.00;;
4642;SDS011;2334;48.710;9.622;2022-12-18T03:09:24;24.50;;;9.97;;
4642;SDS011;2334;48.710;9.622;2022-12-18T03:11:58;22.77;;;11.00;;
4642;SDS011;2334;48.710;9.622;2022-12-18T03:14:47;14.50;;;8.33;;
4642;SDS011;2334;48.710;9.622;2022-12-18T03:17:17;41.77;;;9.10;;
4642;SDS011;2334;48.710;9.622;2022-12-18T03:19:46;16.20;;;6.40;;
4642;SDS011;2334;48.710;9.622;2022-12-18T03:22:15;19.37;;;10.10;;
4642;SDS011;2334;48.710;9.622;2022-12-18T03:24:44;19.70;;;9.90;;
4642;SDS011;2334;48.710;9.622;2022-12-18T03:27:14;18.00;;;7.97;;
4642;SDS011;2334;48.710;9.622;2022-12-18T03:29:45;31.27;;;9.97;;
4642;SDS011;2334;48.710;9.622;2022-12-18T03:32:16;15.33;;;7.53;;
4642;SDS011;2334;48.710;9.622;2022-12-18T03:34:50;25.93;;;8.50;;
4642;SDS011;2334;48.710;9.622;2022-12-18T03:37:19;24.47;;;10.43;;
4642;SDS011;2334;48.710;9.622;2022-12-18T03:39:46;27.17;;;10.10;;
4642;SDS011;2334;48.710;9.622;2022-12-18T03:42:15;21.23;;;8.80;;
4642;SDS011;2334;48.710;9.622;2022-12-18T03:44:52;27.03;;;8.60;;
4642;SDS011;2334;48.710;9.622;2022-12-18T03:47:25;22.23;;;10.40;;
4642;SDS011;2334;48.710;9.622;2022-12-18T03:49:55;31.00;;;14.00;;
4642;SDS011;2334;48.710;9.622;2022-12-18T03:52:28;37.20;;;12.40;;
4642;SDS011;2334;48.710;9.622;2022-12-18T03:55:00;33.53;;;12.10;;
4642;SDS011;2334;48.710;9.622;2022-12-18T03:57:30;23.93;;;10.53;;
4642;SDS011;2334;48.710;9.622;2022-12-18T03:59:59;19.73;;;12.00;;
4642;SDS011;2334;48.710;9.622;2022-12-18T04:02:28;25.43;;;9.83;;
4642;SDS011;2334;48.710;9.622;2022-12-18T04:04:58;21.40;;;9.87;;
4642;SDS011;2334;48.710;9.622;2022-12-18T04:07:28;34.40;;;13.27;;
4642;SDS011;2334;48.710;9.622;2022-12-18T04:09:55;21.40;;;9.87;;
4642;SDS011;2334;48.710;9.622;2022-12-18T04:12:24;32.80;;;12.10;;
4642;SDS011;2334;48.710;9.622;2022-12-18T04:14:53;24.03;;;8.40;;
4642;SDS011;2334;48.710;9.622;2022-12-18T04:17:20;17.93;;;9.57;;
4642;SDS011;2334;48.710;9.622;2022-12-18T04:19:47;24.93;;;9.17;;
4642;SDS011;2334;48.710;9.622;2022-12-18T04:22:14;20.87;;;7.13;;
4642;SDS011;2334;48.710;9.622;2022-12-18T04:24:41;23.43;;;9.73;;
4642;SDS011;2334;48.710;9.622;2022-12-18T04:27:08;13.37;;;8.90;;
4642;SDS011;2334;48.710;9.622;2022-12-18T04:29:35;18.10;;;10.13;;
4642;SDS011;2334;48.710;9.622;2022-12-18T04:32:03;13.93;;;7.83;;
4642;SDS011;2334;48.710;9.622;2022-12-18T04:34:30;26.90;;;8.23;;
4642;SDS011;2334;48.710;9.622;2022-12-18T04:36:57;20.50;;;6.93;;
4642;SDS011;2334;48.710;9.622;2022-12-18T04:39:24;15.53;;;8.00;;
4642;SDS011;2334;48.710;9.622;2022-12-18T04:41:51;19.70;;;7.30;;
4642;SDS011;2334;48.710;9.622;2022-12-18T04:44:18;19.43;;;7.53;;
4642;SDS011;2334;48.710;9.622;2022-12-18T04:46:45;19.37;;;8.53;;
4642;SDS011;2334;48.710;9.622;2022-12-18T04:49:13;10.77;;;6.40;;
4642;SDS011;2334;48.710;9.622;2022-12-18T04:51:40;15.80;;;6.83;;
4642;SDS011;2334;48.710;9.622;2022-12-18T04:54:07;17.57;;;7.77;;
4642;SDS011;2334;48.710;9.622;2022-12-18T04:56:34;18.60;;;8.50;;
4642;SDS011;2334;48.710;9.622;2022-12-18T04:59:01;17.87;;;8.30;;
4642;SDS011;2334;48.710;9.622;2022-12-18T05:01:28;10.80;;;6.70;;
4642;SDS011;2334;48.710;9.622;2022-12-18T05:03:54;15.43;;;6.47;;
4642;SDS011;2334;48.710;9.622;2022-12-18T05:06:23;7.30;;;6.10;;
4642;SDS011;2334;48.710;9.622;2022-12-18T05:08:49;16.87;;;7.87;;
4642;SDS011;2334;48.710;9.622;2022-12-18T05:11:16;18.90;;;6.17;;
4642;SDS011;2334;48.710;9.622;2022-12-18T05:13:44;14.00;;;7.53;;
4642;SDS011;2334;48.710;9.622;2022-12-18T05:16:11;27.13;;;8.07;;
4642;SDS011;2334;48.710;9.622;2022-12-18T05:18:39;27.27;;;9.23;;
4642;SDS011;2334;48.710;9.622;2022-12-18T05:21:06;26.03;;;7.37;;
4642;SDS011;2334;48.710;9.622;2022-12-18T05:23:34;22.10;;;6.93;;
4642;SDS011;2334;48.710;9.622;2022-12-18T05:26:02;14.57;;;8.77;;
4642;SDS011;2334;48.710;9.622;2022-12-18T05:28:31;26.67;;;8.00;;
4642;SDS011;2334;48.710;9.622;2022-12-18T05:31:00;14.43;;;7.50;;
4642;SDS011;2334;48.710;9.622;2022-12-18T05:33:29;15.10;;;8.00;;
4642;SDS011;2334;48.710;9.622;2022-12-18T05:35:58;19.63;;;8.87;;
4642;SDS011;2334;48.710;9.622;2022-12-18T05:38:30;33.13;;;9.17;;
4642;SDS011;2334;48.710;9.622;2022-12-18T05:40:59;20.73;;;7.30;;
4642;SDS011;2334;48.710;9.622;2022-12-18T05:43:27;14.13;;;7.70;;
4642;SDS011;2334;48.710;9.622;2022-12-18T05:45:54;20.80;;;7.93;;
4642;SDS011;2334;48.710;9.622;2022-12-18T05:48:22;21.50;;;5.83;;
4642;SDS011;2334;48.710;9.622;2022-12-18T05:50:49;12.50;;;7.60;;
4642;SDS011;2334;48.710;9.622;2022-12-18T05:53:17;11.30;;;5.57;;
4642;SDS011;2334;48.710;9.622;2022-12-18T05:55:45;18.50;;;6.93;;
4642;SDS011;2334;48.710;9.622;2022-12-18T05:58:14;22.53;;;7.17;;
4642;SDS011;2334;48.710;9.622;2022-12-18T06:00:45;15.50;;;9.30;;
4642;SDS011;2334;48.710;9.622;2022-12-18T06:03:12;7.47;;;5.60;;
4642;SDS011;2334;48.710;9.622;2022-12-18T06:05:41;11.50;;;8.47;;
4642;SDS011;2334;48.710;9.622;2022-12-18T06:08:09;19.37;;;7.37;;
4642;SDS011;2334;48.710;9.622;2022-12-18T06:10:36;24.30;;;8.57;;
4642;SDS011;2334;48.710;9.622;2022-12-18T06:13:04;9.57;;;7.23;;
4642;SDS011;2334;48.710;9.622;2022-12-18T06:15:35;8.23;;;6.33;;
4642;SDS011;2334;48.710;9.622;2022-12-18T06:18:04;7.00;;;5.30;;
4642;SDS011;2334;48.710;9.622;2022-12-18T06:20:30;17.80;;;6.13;;
4642;SDS011;2334;48.710;9.622;2022-12-18T06:22:57;17.37;;;6.60;;
4642;SDS011;2334;48.710;9.622;2022-12-18T06:25:24;12.90;;;8.17;;
4642;SDS011;2334;48.710;9.622;2022-12-18T06:27:51;18.77;;;6.70;;
4642;SDS011;2334;48.710;9.622;2022-12-18T06:30:18;13.80;;;5.40;;
4642;SDS011;2334;48.710;9.622;2022-12-18T06:32:46;11.80;;;5.47;;
4642;SDS011;2334;48.710;9.622;2022-12-18T06:35:14;32.33;;;5.63;;
4642;SDS011;2334;48.710;9.622;2022-12-18T06:37:41;15.60;;;6.77;;
4642;SDS011;2334;48.710;9.622;2022-12-18T06:40:08;15.47;;;8.43;;
4642;SDS011;2334;48.710;9.622;2022-12-18T06:42:35;10.63;;;6.00;;
4642;SDS011;2334;48.710;9.622;2022-12-18T06:45:02;25.60;;;6.73;;
4642;SDS011;2334;48.710;9.622;2022-12-18T06:47:29;20.47;;;9.90;;
4642;SDS011;2334;48.710;9.622;2022-12-18T06:49:58;18.33;;;5.40;;
4642;SDS011;2334;48.710;9.622;2022-12-18T06:52:24;23.60;;;6.17;;
4642;SDS011;2334;48.710;9.622;2022-12-18T06:54:53;18.40;;;7.23;;
4642;SDS011;2334;48.710;9.622;2022-12-18T06:57:20;20.30;;;8.00;;
4642;SDS011;2334;48.710;9.622;2022-12-18T06:59:47;17.50;;;8.70;;
4642;SDS011;2334;48.710;9.622;2022-12-18T07:02:13;17.43;;;7.70;;
4642;SDS011;2334;48.710;9.622;2022-12-18T07:04:40;19.07;;;7.17;;
4642;SDS011;2334;48.710;9.622;2022-12-18T07:07:08;14.03;;;7.70;;
4642;SDS011;2334;48.710;9.622;2022-12-18T07:09:36;11.07;;;7.47;;
4642;SDS011;2334;48.710;9.622;2022-12-18T07:12:03;21.40;;;10.30;;
4642;SDS011;2334;48.710;9.622;2022-12-18T07:14:30;24.27;;;8.33;;
4642;SDS011;2334;48.710;9.622;2022-12-18T07:16:57;11.90;;;7.27;;
4642;SDS011;2334;48.710;9.622;2022-12-18T07:19:23;19.67;;;7.10;;
4642;SDS011;2334;48.710;9.622;2022-12-18T07:21:50;10.30;;;7.63;;
4642;SDS011;2334;48.710;9.622;2022-12-18T07:24:19;7.70;;;5.10;;
4642;SDS011;2334;48.710;9.622;2022-12-18T07:26:46;18.67;;;7.50;;
4642;SDS011;2334;48.710;9.622;2022-12-18T07:29:13;13.50;;;5.97;;
4642;SDS011;2334;48.710;9.622;2022-12-18T07:31:40;14.90;;;8.33;;
4642;SDS011;2334;48.710;9.622;2022-12-18T07:34:09;17.90;;;7.90;;
4642;SDS011;2334;48.710;9.622;2022-12-18T07:36:36;26.90;;;9.90;;
4642;SDS011;2334;48.710;9.622;2022-12-18T07:39:03;28.33;;;8.47;;
4642;SDS011;2334;48.710;9.622;2022-12-18T07:41:31;22.40;;;10.30;;
4642;SDS011;2334;48.710;9.622;2022-12-18T07:43:58;18.60;;;9.13;;
4642;SDS011;2334;48.710;9.622;2022-12-18T07:46:25;12.60;;;5.93;;
4642;SDS011;2334;48.710;9.622;2022-12-18T07:48:52;16.13;;;8.70;;
4642;SDS011;2334;48.710;9.622;2022-12-18T07:51:19;32.13;;;8.40;;
4642;SDS011;2334;48.710;9.622;2022-12-18T07:53:46;24.87;;;10.80;;
4642;SDS011;2334;48.710;9.622;2022-12-18T07:56:13;26.77;;;9.50;;
4642;SDS011;2334;48.710;9.622;2022-12-18T07:58:41;51.07;;;11.40;;
4642;SDS011;2334;48.710;9.622;2022-12-18T08:01:10;32.90;;;12.60;;
4642;SDS011;2334;48.710;9.622;2022-12-18T08:03:38;28.83;;;10.00;;
4642;SDS011;2334;48.710;9.622;2022-12-18T08:06:06;29.63;;;11.27;;
4642;SDS011;2334;48.710;9.622;2022-12-18T08:08:34;33.53;;;12.63;;
4642;SDS011;2334;48.710;9.622;2022-12-18T08:11:02;37.50;;;12.00;;
4642;SDS011;2334;48.710;9.622;2022-12-18T08:13:29;53.70;;;16.97;;
4642;SDS011;2334;48.710;9.622;2022-12-18T08:15:58;30.03;;;12.60;;
4642;SDS011;2334;48.710;9.622;2022-12-18T08:18:26;30.40;;;11.20;;
4642;SDS011;2334;48.710;9.622;2022-12-18T08:20:53;41.40;;;14.87;;
4642;SDS011;2334;48.710;9.622;2022-12-18T08:23:21;48.57;;;16.90;;
4642;SDS011;2334;48.710;9.622;2022-12-18T08:25:47;45.13;;;18.83;;
4642;SDS011;2334;48.710;9.622;2022-12-18T08:28:15;34.43;;;14.60;;
4642;SDS011;2334;48.710;9.622;2022-12-18T08:30:41;31.17;;;9.67;;
4642;SDS011;2334;48.710;9.622;2022-12-18T08:33:10;39.03;;;12.50;;
4642;SDS011;2334;48.710;9.622;2022-12-18T08:35:36;39.57;;;14.07;;
4642;SDS011;2334;48.710;9.622;2022-12-18T08:38:03;43.17;;;15.10;;
4642;SDS011;2334;48.710;9.622;2022-12-18T08:40:30;39.47;;;13.90;;
4642;SDS011;2334;48.710;9.622;2022-12-18T08:42:57;52.27;;;15.90;;
4642;SDS011;2334;48.710;9.622;2022-12-18T08:45:41;33.57;;;12.43;;
4642;SDS011;2334;48.710;9.622;2022-12-18T08:48:10;21.10;;;8.83;;
4642;SDS011;2334;48.710;9.622;2022-12-18T08:50:36;28.57;;;11.97;;
4642;SDS011;2334;48.710;9.622;2022-12-18T08:53:03;23.63;;;10.20;;
4642;SDS011;2334;48.710;9.622;2022-12-18T08:55:30;25.37;;;10.43;;
4642;SDS011;2334;48.710;9.622;2022-12-18T08:57:57;45.03;;;11.80;;
4642;SDS011;2334;48.710;9.622;2022-12-18T09:00:24;30.70;;;10.77;;
4642;SDS011;2334;48.710;9.622;2022-12-18T09:02:51;38.13;;;11.90;;
4642;SDS011;2334;48.710;9.622;2022-12-18T09:05:19;23.93;;;12.60;;
4642;SDS011;2334;48.710;9.622;2022-12-18T09:07:46;38.33;;;13.10;;
4642;SDS011;2334;48.710;9.622;2022-12-18T09:10:12;21.60;;;11.10;;
4642;SDS011;2334;48.710;9.622;2022-12-18T09:12:39;23.50;;;11.53;;
4642;SDS011;2334;48.710;9.622;2022-12-18T09:15:06;35.47;;;11.40;;
4642;SDS011;2334;48.710;9.622;2022-12-18T09:17:34;32.90;;;11.03;;
4642;SDS011;2334;48.710;9.622;2022-12-18T09:20:01;22.90;;;10.70;;
4642;SDS011;2334;48.710;9.622;2022-12-18T09:22:29;25.80;;;9.87;;
4642;SDS011;2334;48.710;9.622;2022-12-18T09:24:56;32.63;;;11.37;;
4642;SDS011;2334;48.710;9.622;2022-12-18T09:27:23;33.13;;;13.60;;
4642;SDS011;2334;48.710;9.622;2022-12-18T09:29:57;32.80;;;12.70;;
4642;SDS011;2334;48.710;9.622;2022-12-18T09:32:24;39.90;;;12.50;;
4642;SDS011;2334;48.710;9.622;2022-12-18T09:34:51;21.53;;;9.20;;
4642;SDS011;2334;48.710;9.622;2022-12-18T09:37:18;35.87;;;11.23;;
4642;SDS011;2334;48.710;9.622;2022-12-18T09:39:46;28.77;;;10.00;;
4642;SDS011;2334;48.710;9.622;2022-12-18T09:42:14;31.93;;;11.33;;
4642;SDS011;2334;48.710;9.622;2022-12-18T09:44:47;28.17;;;10.20;;
4642;SDS011;2334;48.710;9.622;2022-12-18T09:47:18;27.87;;;11.60;;
4642;SDS011;2334;48.710;9.622;2022-12-18T09:49:49;30.23;;;11.40;;
4642;SDS011;2334;48.710;9.622;2022-12-18T09:52:19;33.60;;;11.20;;
4642;SDS011;2334;48.710;9.622;2022-12-18T09:54:53;25.87;;;9.67;;
4642;SDS011;2334;48.710;9.622;2022-12-18T09:57:24;23.53;;;11.47;;
4642;SDS011;2334;48.710;9.622;2022-12-18T09:59:53;37.30;;;11.97;;
4642;SDS011;2334;48.710;9.622;2022-12-18T10:02:29;28.53;;;11.80;;
4642;SDS011;2334;48.710;9.622;2022-12-18T10:05:02;32.00;;;11.97;;
4642;SDS011;2334;48.710;9.622;2022-12-18T10:07:33;31.20;;;11.07;;
4642;SDS011;2334;48.710;9.622;2022-12-18T10:10:14;34.23;;;11.10;;
4642;SDS011;2334;48.710;9.622;2022-12-18T10:12:54;28.17;;;10.33;;
4642;SDS011;2334;48.710;9.622;2022-12-18T10:15:29;20.83;;;8.83;;
4642;SDS011;2334;48.710;9.622;2022-12-18T10:18:04;39.23;;;11.53;;
4642;SDS011;2334;48.710;9.622;2022-12-18T10:20:43;36.60;;;11.90;;
4642;SDS011;2334;48.710;9.622;2022-12-18T10:23:14;35.97;;;10.60;;
4642;SDS011;2334;48.710;9.622;2022-12-18T10:25:49;29.07;;;11.20;;
4642;SDS011;2334;48.710;9.622;2022-12-18T10:28:21;36.00;;;10.93;;
4642;SDS011;2334;48.710;9.622;2022-12-18T10:30:49;32.60;;;10.60;;
4642;SDS011;2334;48.710;9.622;2022-12-18T10:33:17;24.17;;;11.17;;
4642;SDS011;2334;48.710;9.622;2022-12-18T10:35:45;32.20;;;11.37;;
4642;SDS011;2334;48.710;9.622;2022-12-18T10:38:21;27.27;;;11.90;;
4642;SDS011;2334;48.710;9.622;2022-12-18T10:40:53;31.83;;;11.53;;
4642;SDS011;2334;48.710;9.622;2022-12-18T10:43:22;20.77;;;10.03;;
4642;SDS011;2334;48.710;9.622;2022-12-18T10:45:58;26.10;;;11.00;;
4642;SDS011;2334;48.710;9.622;2022-12-18T10:48:27;29.97;;;11.07;;
4642;SDS011;2334;48.710;9.622;2022-12-18T10:50:55;26.07;;;11.50;;
4642;SDS011;2334;48.710;9.622;2022-12-18T10:53:23;35.93;;;11.20;;
4642;SDS011;2334;48.710;9.622;2022-12-18T10:55:54;34.60;;;12.43;;
4642;SDS011;2334;48.710;9.622;2022-12-18T10:58:26;32.57;;;12.40;;
4642;SDS011;2334;48.710;9.622;2022-12-18T11:01:09;29.80;;;11.73;;
4642;SDS011;2334;48.710;9.622;2022-12-18T11:03:37;33.10;;;11.30;;
4642;SDS011;2334;48.710;9.622;2022-12-18T11:06:06;29.87;;;11.47;;
4642;SDS011;2334;48.710;9.622;2022-12-18T11:08:35;31.27;;;10.97;;
4642;SDS011;2334;48.710;9.622;2022-12-18T11:11:04;34.53;;;13.20;;
4642;SDS011;2334;48.710;9.622;2022-12-18T11:13:41;35.00;;;12.47;;
4642;SDS011;2334;48.710;9.622;2022-12-18T11:16:19;24.77;;;10.20;;
4642;SDS011;2334;48.710;9.622;2022-12-18T11:18:46;27.53;;;11.70;;
4642;SDS011;2334;48.710;9.622;2022-12-18T11:21:13;36.63;;;10.87;;
4642;SDS011;2334;48.710;9.622;2022-12-18T11:23:44;30.37;;;10.90;;
4642;SDS011;2334;48.710;9.622;2022-12-18T11:26:15;28.90;;;11.80;;
4642;SDS011;2334;48.710;9.622;2022-12-18T11:28:43;24.03;;;11.23;;
4642;SDS011;2334;48.710;9.622;2022-12-18T11:31:17;30.97;;;10.93;;
4642;SDS011;2334;48.710;9.622;2022-12-18T11:33:48;28.63;;;11.70;;
4642;SDS011;2334;48.710;9.622;2022-12-18T11:36:20;28.70;;;11.30;;
4642;SDS011;2334;48.710;9.622;2022-12-18T11:38:48;30.67;;;13.80;;
4642;SDS011;2334;48.710;9.622;2022-12-18T11:41:23;32.47;;;11.97;;
4642;SDS011;2334;48.710;9.622;2022-12-18T11:44:14;31.00;;;11.97;;
4642;SDS011;2334;48.710;9.622;2022-12-18T11:46:47;28.60;;;11.87;;
4642;SDS011;2334;48.710;9.622;2022-12-18T11:49:18;27.80;;;11.27;;
4642;SDS011;2334;48.710;9.622;2022-12-18T11:51:50;31.60;;;12.53;;
4642;SDS011;2334;48.710;9.622;2022-12-18T11:54:25;27.20;;;11.57;;
4642;SDS011;2334;48.710;9.622;2022-12-18T11:56:55;25.93;;;10.70;;
4642;SDS011;2334;48.710;9.622;2022-12-18T11:59:32;34.83;;;12.23;;
4642;SDS011;2334;48.710;9.622;2022-12-18T12:02:11;30.80;;;11.10;;
4642;SDS011;2334;48.710;9.622;2022-12-18T12:04:57;34.40;;;13.90;;
4642;SDS011;2334;48.710;9.622;2022-12-18T12:07:34;36.57;;;13.70;;
4642;SDS011;2334;48.710;9.622;2022-12-18T12:10:11;28.43;;;10.23;;
4642;SDS011;2334;48.710;9.622;2022-12-18T12:12:55;26.53;;;11.13;;
4642;SDS011;2334;48.710;9.622;2022-12-18T12:15:36;32.40;;;11.80;;
4642;SDS011;2334;48.710;9.622;2022-12-18T12:18:08;27.43;;;9.93;;
4642;SDS011;2334;48.710;9.622;2022-12-18T12:20:47;31.77;;;11.27;;
4642;SDS011;2334;48.710;9.622;2022-12-18T12:23:27;27.07;;;10.40;;
4642;SDS011;2334;48.710;9.622;2022-12-18T12:26:02;36.70;;;11.93;;
4642;SDS011;2334;48.710;9.622;2022-12-18T12:31:46;33.10;;;13.27;;
4642;SDS011;2334;48.710;9.622;2022-12-18T12:34:26;44.10;;;11.53;;
4642;SDS011;2334;48.710;9.622;2022-12-18T12:37:06;35.30;;;11.73;;
4642;SDS011;2334;48.710;9.622;2022-12-18T12:39:42;33.17;;;13.70;;
4642;SDS011;2334;48.710;9.622;2022-12-18T12:42:13;28.97;;;11.00;;
4642;SDS011;2334;48.710;9.622;2022-12-18T12:45:03;29.50;;;12.70;;
4642;SDS011;2334;48.710;9.622;2022-12-18T12:47:35;36.63;;;13.00;;
4642;SDS011;2334;48.710;9.622;2022-12-18T12:50:11;31.17;;;11.30;;
4642;SDS011;2334;48.710;9.622;2022-12-18T12:52:42;31.70;;;12.17;;
4642;SDS011;2334;48.710;9.622;2022-12-18T12:55:14;35.23;;;13.80;;
4642;SDS011;2334;48.710;9.622;2022-12-18T12:57:46;37.40;;;10.97;;
4642;SDS011;2334;48.710;9.622;2022-12-18T13:00:19;31.07;;;10.50;;
4642;SDS011;2334;48.710;9.622;2022-12-18T13:02:49;33.57;;;13.60;;
4642;SDS011;2334;48.710;9.622;2022-12-18T13:05:23;31.20;;;11.43;;
4642;SDS011;2334;48.710;9.622;2022-12-18T13:07:55;39.73;;;13.10;;
4642;SDS011;2334;48.710;9.622;2022-12-18T13:10:28;30.27;;;12.70;;
4642;SDS011;2334;48.710;9.622;2022-12-18T13:12:59;35.53;;;13.20;;
4642;SDS011;2334;48.710;9.622;2022-12-18T13:15:28;26.97;;;11.60;;
4642;SDS011;2334;48.710;9.622;2022-12-18T13:18:20;33.33;;;14.20;;
4642;SDS011;2334;48.710;9.622;2022-12-18T13:20:49;28.40;;;12.27;;
4642;SDS011;2334;48.710;9.622;2022-12-18T13:23:33;26.07;;;10.80;;
4642;SDS011;2334;48.710;9.622;2022-12-18T13:29:02;39.33;;;13.03;;
4642;SDS011;2334;48.710;9.622;2022-12-18T13:34:32;28.87;;;11.20;;
4642;SDS011;2334;48.710;9.622;2022-12-18T13:39:59;31.27;;;11.77;;
4642;SDS011;2334;48.710;9.622;2022-12-18T13:45:41;39.97;;;13.37;;
4642;SDS011;2334;48.710;9.622;2022-12-18T13:48:21;41.10;;;14.40;;
4642;SDS011;2334;48.710;9.622;2022-12-18T13:53:43;31.20;;;12.30;;
4642;SDS011;2334;48.710;9.622;2022-12-18T13:56:15;36.70;;;13.43;;
4642;SDS011;2334;48.710;9.622;2022-12-18T13:58:42;44.30;;;14.87;;
4642;SDS011;2334;48.710;9.622;2022-12-18T14:01:15;35.20;;;14.70;;
4642;SDS011;2334;48.710;9.622;2022-12-18T14:03:48;30.10;;;11.80;;
4642;SDS011;2334;48.710;9.622;2022-12-18T14:06:16;30.27;;;11.50;;
4642;SDS011;2334;48.710;9.622;2022-12-18T14:08:43;31.87;;;12.77;;
4642;SDS011;2334;48.710;9.622;2022-12-18T14:11:17;24.70;;;11.10;;
4642;SDS011;2334;48.710;9.622;2022-12-18T14:13:47;33.77;;;12.63;;
4642;SDS011;2334;48.710;9.622;2022-12-18T14:16:14;36.90;;;12.07;;
4642;SDS011;2334;48.710;9.622;2022-12-18T14:18:44;54.43;;;15.63;;
4642;SDS011;2334;48.710;9.622;2022-12-18T14:21:19;42.23;;;13.90;;
4642;SDS011;2334;48.710;9.622;2022-12-18T14:23:49;28.27;;;12.67;;
4642;SDS011;2334;48.710;9.622;2022-12-18T14:26:30;26.50;;;12.23;;
4642;SDS011;2334;48.710;9.622;2022-12-18T14:28:58;38.27;;;12.63;;
4642;SDS011;2334;48.710;9.622;2022-12-18T14:31:40;35.63;;;12.83;;
4642;SDS011;2334;48.710;9.622;2022-12-18T14:34:08;34.80;;;13.90;;
4642;SDS011;2334;48.710;9.622;2022-12-18T14:36:44;26.93;;;11.77;;
4642;SDS011;2334;48.710;9.622;2022-12-18T14:39:18;32.83;;;12.03;;
4642;SDS011;2334;48.710;9.622;2022-12-18T14:41:45;30.50;;;11.93;;
4642;SDS011;2334;48.710;9.622;2022-12-18T14:44:14;24.50;;;9.90;;
4642;SDS011;2334;48.710;9.622;2022-12-18T14:46:41;29.00;;;11.00;;
4642;SDS011;2334;48.710;9.622;2022-12-18T14:49:17;25.40;;;11.10;;
4642;SDS011;2334;48.710;9.622;2022-12-18T14:51:50;21.90;;;10.00;;
4642;SDS011;2334;48.710;9.622;2022-12-18T14:54:19;30.83;;;11.57;;
4642;SDS011;2334;48.710;9.622;2022-12-18T14:56:47;30.47;;;10.90;;
4642;SDS011;2334;48.710;9.622;2022-12-18T14:59:16;27.17;;;11.23;;
4642;SDS011;2334;48.710;9.622;2022-12-18T15:01:48;35.73;;;11.83;;
4642;SDS011;2334;48.710;9.622;2022-12-18T15:04:24;30.57;;;9.80;;
4642;SDS011;2334;48.710;9.622;2022-12-18T15:07:05;25.90;;;11.87;;
4642;SDS011;2334;48.710;9.622;2022-12-18T15:09:36;25.10;;;10.27;;
4642;SDS011;2334;48.710;9.622;2022-12-18T15:12:04;26.93;;;10.10;;
4642;SDS011;2334;48.710;9.622;2022-12-18T15:14:32;26.80;;;10.57;;
4642;SDS011;2334;48.710;9.622;2022-12-18T15:17:05;29.93;;;10.70;;
4642;SDS011;2334;48.710;9.622;2022-12-18T15:19:40;26.90;;;9.23;;
4642;SDS011;2334;48.710;9.622;2022-12-18T15:22:17;26.83;;;11.80;;
4642;SDS011;2334;48.710;9.622;2022-12-18T15:24:47;28.47;;;10.00;;
4642;SDS011;2334;48.710;9.622;2022-12-18T15:27:25;27.53;;;9.47;;
4642;SDS011;2334;48.710;9.622;2022-12-18T15:32:44;31.10;;;11.60;;
4642;SDS011;2334;48.710;9.622;2022-12-18T15:35:13;30.90;;;11.33;;